Time;durP1;ratioP1;P1;durP2;ratioP2;P2;SDS_P1;SDS_P2;PMS_P1;PMS_P2;Temp;Humidity;BMP_temperature;BMP_pressure;BME280_temperature;BME280_humidity;BME280_pressure;Samples;Min_cycle;Max_cycle;Signal;HPM_P1;HPM_P2
2022/03/15 00:01:03;;;;;;;8.88;4.07;;;;;;;4.21;100.00;102594.16;6287923;28;20048;-72
2022/03/15 00:04:05;;;;;;;9.13;4.45;;;;;;;4.21;100.00;102598.50;6289785;28;20041;-72
2022/03/15 00:07:10;;;;;;;9.60;3.95;;;;;;;4.17;100.00;102599.34;6288101;28;20130;-73
2022/03/15 00:10:13;;;;;;;9.98;5.13;;;;;;;4.13;100.00;102600.19;6286525;28;20052;-72
2022/03/15 00:13:15;;;;;;;13.07;4.85;;;;;;;4.08;100.00;102601.03;6284838;28;20131;-72
2022/03/15 00:16:18;;;;;;;8.52;4.75;;;;;;;4.07;100.00;102608.84;6289129;28;20127;-72
2022/03/15 00:19:19;;;;;;;10.07;4.65;;;;;;;4.02;100.00;102614.03;6288810;28;20055;-72
2022/03/15 00:22:22;;;;;;;9.40;4.22;;;;;;;3.97;100.00;102609.69;6286537;28;20045;-72
2022/03/15 00:25:24;;;;;;;10.48;4.95;;;;;;;3.93;100.00;102607.94;6278608;28;20129;-72
2022/03/15 00:28:26;;;;;;;12.73;4.88;;;;;;;3.91;100.00;102617.47;6281091;28;20178;-72
2022/03/15 00:31:28;;;;;;;11.65;4.90;;;;;;;3.88;100.00;102618.31;6287235;28;20428;-72
2022/03/15 00:34:30;;;;;;;11.38;5.15;;;;;;;3.88;100.00;102628.72;6289580;28;20068;-73
2022/03/15 00:37:31;;;;;;;14.70;5.45;;;;;;;3.85;100.00;102628.69;6287155;28;20522;-72
2022/03/15 00:40:33;;;;;;;7.95;4.10;;;;;;;3.84;100.00;102632.16;6283374;28;20049;-72
2022/03/15 00:43:34;;;;;;;9.35;5.03;;;;;;;3.83;100.00;102621.78;6287608;28;20048;-72
2022/03/15 00:46:37;;;;;;;16.02;5.00;;;;;;;3.83;100.00;102619.16;6289666;28;20048;-72
2022/03/15 00:49:38;;;;;;;12.95;4.78;;;;;;;3.84;100.00;102607.91;6283009;28;20119;-73
2022/03/15 00:52:39;;;;;;;12.73;4.80;;;;;;;3.82;100.00;102607.91;6292129;28;20045;-72
2022/03/15 00:55:41;;;;;;;10.30;4.70;;;;;;;3.79;100.00;102618.28;6293964;28;20053;-72
2022/03/15 00:58:42;;;;;;;11.68;5.55;;;;;;;3.78;100.00;102611.34;6297048;28;20052;-72
2022/03/15 01:01:45;;;;;;;9.57;4.07;;;;;;;3.77;100.00;102620.88;6296019;28;20040;-72
2022/03/15 01:04:46;;;;;;;9.50;5.28;;;;;;;3.78;100.00;102625.22;6298399;28;20048;-72
2022/03/15 01:07:47;;;;;;;9.38;5.35;;;;;;;3.81;100.00;102624.34;6298401;28;20059;-72
2022/03/15 01:10:49;;;;;;;8.80;4.35;;;;;;;3.78;100.00;102622.59;6297797;28;20423;-72
2022/03/15 01:13:51;;;;;;;12.00;5.05;;;;;;;3.76;100.00;102626.91;6298357;28;20189;-72
2022/03/15 01:16:55;;;;;;;15.05;5.47;;;;;;;3.78;100.00;102629.53;6297981;28;20075;-72
2022/03/15 01:19:57;;;;;;;12.68;5.45;;;;;;;3.81;100.00;102634.75;6298080;28;20488;-72
2022/03/15 01:22:58;;;;;;;10.32;4.85;;;;;;;3.79;100.00;102629.53;6297689;28;20488;-73
2022/03/15 01:26:00;;;;;;;7.88;4.15;;;;;;;3.78;100.00;102635.63;6297926;28;20055;-72
2022/03/15 01:29:02;;;;;;;9.70;4.93;;;;;;;3.76;100.00;102633.84;6298086;28;20048;-72
2022/03/15 01:32:05;;;;;;;9.43;5.03;;;;;;;3.74;100.00;102623.44;6297173;28;20045;-72
2022/03/15 01:35:07;;;;;;;14.15;5.65;;;;;;;3.71;100.00;102625.16;6297610;28;20052;-72
2022/03/15 01:38:09;;;;;;;10.43;5.43;;;;;;;3.65;100.00;102618.22;6297689;28;20632;-72
2022/03/15 01:41:11;;;;;;;10.10;4.22;;;;;;;3.63;100.00;102616.44;6296905;28;20114;-72
2022/03/15 01:44:18;;;;;;;10.77;5.43;;;;;;;3.56;100.00;102623.34;6296752;28;20045;-72
2022/03/15 01:47:21;;;;;;;12.07;5.20;;;;;;;3.51;100.00;102622.47;6297635;28;20496;-72
2022/03/15 01:50:22;;;;;;;15.02;5.35;;;;;;;3.48;100.00;102620.69;6296848;28;20056;-72
2022/03/15 01:53:24;;;;;;;9.55;4.80;;;;;;;3.45;100.00;102617.19;6297508;28;20181;-72
2022/03/15 01:56:26;;;;;;;8.45;4.35;;;;;;;3.42;100.00;102606.81;6297154;28;20052;-72
2022/03/15 01:59:27;;;;;;;8.88;4.95;;;;;;;3.39;100.00;102611.97;6297444;28;20052;-72
2022/03/15 02:02:30;;;;;;;11.32;4.60;;;;;;;3.30;100.00;102605.84;6296517;28;20186;-72
2022/03/15 02:05:31;;;;;;;9.00;5.00;;;;;;;3.27;100.00;102607.56;6296897;28;20048;-72
2022/03/15 02:08:34;;;;;;;12.18;4.95;;;;;;;3.24;100.00;102605.81;6297357;28;20048;-72
2022/03/15 02:11:36;;;;;;;6.25;4.53;;;;;;;3.20;100.00;102608.38;6296254;28;20462;-72
2022/03/15 02:14:38;;;;;;;10.98;4.78;;;;;;;3.14;100.00;102609.22;6297012;28;20127;-72
2022/03/15 02:17:40;;;;;;;10.45;4.78;;;;;;;3.11;100.00;102609.19;6296609;28;20044;-72
2022/03/15 02:20:43;;;;;;;7.57;4.57;;;;;;;3.09;100.00;102605.72;6296321;28;20059;-72
2022/03/15 02:23:45;;;;;;;8.43;4.53;;;;;;;3.08;100.00;102613.47;6296633;28;20496;-72
2022/03/15 02:26:47;;;;;;;6.40;3.75;;;;;;;2.99;100.00;102602.16;6296946;28;20052;-72
2022/03/15 02:29:48;;;;;;;9.35;3.67;;;;;;;2.99;100.00;102591.78;6296399;28;20056;-72
2022/03/15 02:32:49;;;;;;;6.90;3.65;;;;;;;2.99;100.00;102594.38;6296492;28;20049;-72
2022/03/15 02:35:53;;;;;;;6.50;4.00;;;;;;;2.98;100.00;102592.63;6296489;28;20059;-72
2022/03/15 02:38:54;;;;;;;10.02;4.13;;;;;;;2.98;100.00;102594.38;6296496;28;20119;-72
2022/03/15 02:41:55;;;;;;;9.85;3.90;;;;;;;2.94;100.00;102590.00;6295594;28;20487;-72
2022/03/15 02:44:57;;;;;;;9.40;3.72;;;;;;;2.90;100.00;102591.69;6296318;28;20041;-72
2022/03/15 02:47:58;;;;;;;9.93;4.10;;;;;;;2.92;100.00;102589.13;6296569;28;20048;-72
2022/03/15 02:51:04;;;;;;;10.23;3.80;;;;;;;2.91;100.00;102584.81;6295735;28;20056;-71
2022/03/15 02:54:08;;;;;;;11.80;4.75;;;;;;;2.89;100.00;102589.97;6296564;28;20044;-71
2022/03/15 02:57:10;;;;;;;13.55;3.45;;;;;;;2.88;100.00;102595.16;6288965;28;20106;-72
2022/03/15 03:00:13;;;;;;;5.70;3.03;;;;;;;2.84;100.00;102585.59;6295770;28;20389;-72
2022/03/15 03:03:15;;;;;;;5.97;3.05;;;;;;;2.83;100.00;102589.94;6295596;28;20442;-71
2022/03/15 03:06:18;;;;;;;7.38;3.58;;;;;;;2.76;100.00;102585.53;6295993;28;20115;-71
2022/03/15 03:09:19;;;;;;;7.88;3.72;;;;;;;2.72;100.00;102584.63;6295864;28;20045;-72
2022/03/15 03:12:20;;;;;;;5.55;3.30;;;;;;;2.70;100.00;102582.88;6295598;28;20049;-72
2022/03/15 03:15:22;;;;;;;7.95;3.53;;;;;;;2.71;100.00;102582.03;6296178;28;20048;-72
2022/03/15 03:18:27;;;;;;;9.07;3.50;;;;;;;2.72;100.00;102581.16;6295796;28;20048;-72
2022/03/15 03:21:30;;;;;;;7.95;3.83;;;;;;;2.71;100.00;102589.81;6295425;28;20067;-72
2022/03/15 03:24:32;;;;;;;7.20;3.45;;;;;;;2.66;100.00;102587.19;6295806;28;20098;-71
2022/03/15 03:27:33;;;;;;;9.15;3.60;;;;;;;2.63;100.00;102581.09;6295854;28;20056;-72
2022/03/15 03:30:37;;;;;;;11.82;4.72;;;;;;;2.60;100.00;102575.88;6294994;28;20407;-71
2022/03/15 03:33:38;;;;;;;7.60;4.20;;;;;;;2.58;100.00;102581.03;6295973;28;20063;-70
2022/03/15 03:36:41;;;;;;;7.68;2.95;;;;;;;2.60;100.00;102579.34;6295703;28;20079;-71
2022/03/15 03:39:42;;;;;;;4.50;3.22;;;;;;;2.61;100.00;102581.06;6295833;28;20055;-71
2022/03/15 03:42:44;;;;;;;9.82;4.43;;;;;;;2.59;100.00;102575.03;6294706;28;20564;-72
2022/03/15 03:45:45;;;;;;;7.90;3.75;;;;;;;2.59;100.00;102574.13;6295785;28;20048;-71
2022/03/15 03:48:47;;;;;;;6.95;3.88;;;;;;;2.54;100.00;102574.97;6295758;28;20051;-72
2022/03/15 03:51:50;;;;;;;7.03;3.42;;;;;;;2.58;100.00;102567.19;6294814;28;20045;-71
2022/03/15 03:54:52;;;;;;;8.50;3.50;;;;;;;2.58;100.00;102564.59;6295715;28;20048;-72
2022/03/15 03:57:54;;;;;;;6.88;3.78;;;;;;;2.55;100.00;102557.69;6295354;28;20153;-71
2022/03/15 04:00:55;;;;;;;9.55;4.55;;;;;;;2.54;100.00;102561.09;6294967;28;20052;-72
2022/03/15 04:03:59;;;;;;;10.25;4.35;;;;;;;2.52;100.00;102555.91;6295268;28;20055;-71
2022/03/15 04:07:05;;;;;;;7.45;3.35;;;;;;;2.50;100.00;102555.03;6296859;28;20045;-72
2022/03/15 04:10:08;;;;;;;12.05;3.72;;;;;;;2.50;100.00;102557.63;6299682;28;20788;-72
2022/03/15 04:13:10;;;;;;;6.65;3.00;;;;;;;2.50;100.00;102556.78;6299510;28;20056;-72
2022/03/15 04:16:11;;;;;;;5.13;2.97;;;;;;;2.47;100.00;102559.31;6299711;28;20049;-72
2022/03/15 04:19:12;;;;;;;8.20;3.38;;;;;;;2.43;100.00;102558.41;6299188;28;20052;-72
2022/03/15 04:22:15;;;;;;;6.40;3.22;;;;;;;2.42;100.00;102553.22;6288079;28;20073;-70
2022/03/15 04:25:16;;;;;;;6.40;3.50;;;;;;;2.44;100.00;102554.09;6274586;28;20044;-72
2022/03/15 04:28:19;;;;;;;7.93;3.63;;;;;;;2.43;100.00;102552.38;6282784;28;20057;-71
2022/03/15 04:31:21;;;;;;;10.63;4.10;;;;;;;2.43;100.00;102553.22;6298508;28;20488;-72
2022/03/15 04:34:22;;;;;;;5.63;3.50;;;;;;;2.42;100.00;102561.00;6299196;28;20064;-72
2022/03/15 04:37:25;;;;;;;5.85;3.15;;;;;;;2.42;100.00;102556.69;6292920;28;20048;-71
2022/03/15 04:40:27;;;;;;;11.40;4.70;;;;;;;2.44;100.00;102549.78;6282832;28;20052;-71
2022/03/15 04:43:29;;;;;;;8.05;3.97;;;;;;;2.44;100.00;102554.09;6288183;28;20079;-72
2022/03/15 04:46:31;;;;;;;6.72;2.78;;;;;;;2.41;100.00;102551.50;6287821;28;20428;-71
2022/03/15 04:49:33;;;;;;;7.88;3.95;;;;;;;2.37;100.00;102566.16;6274020;28;20059;-71
2022/03/15 04:52:36;;;;;;;6.80;3.33;;;;;;;2.40;100.00;102562.69;6273462;28;20056;-71
2022/03/15 04:55:38;;;;;;;9.95;3.95;;;;;;;2.38;100.00;102554.06;6280937;28;20484;-71
2022/03/15 04:58:39;;;;;;;6.15;3.47;;;;;;;2.35;100.00;102554.00;6293147;28;20055;-72
2022/03/15 05:01:40;;;;;;;6.25;3.78;;;;;;;2.33;100.00;102556.59;6297291;28;20052;-71
2022/03/15 05:04:42;;;;;;;6.20;2.95;;;;;;;2.32;100.00;102557.47;6293684;28;20037;-72
2022/03/15 05:07:44;;;;;;;6.15;4.20;;;;;;;2.34;100.00;102557.47;6298480;28;20503;-71
2022/03/15 05:14:05;;;;;;;3.75;2.67;;;;;;;2.33;100.00;102550.53;6285169;28;20491;-71
2022/03/15 05:17:06;;;;;;;8.93;4.40;;;;;;;2.29;100.00;102549.63;6285421;28;20420;-71
2022/03/15 05:20:10;;;;;;;8.43;3.90;;;;;;;2.26;100.00;102545.28;6284586;28;20049;-72
2022/03/15 05:23:12;;;;;;;7.03;3.47;;;;;;;2.32;100.00;102551.38;6274270;28;20059;-72
2022/03/15 05:26:15;;;;;;;7.80;4.38;;;;;;;2.32;100.00;102552.28;6273305;28;20045;-72
2022/03/15 05:29:17;;;;;;;15.65;3.85;;;;;;;2.31;100.00;102549.66;6273054;28;20060;-72
2022/03/15 05:32:18;;;;;;;6.82;3.83;;;;;;;2.26;100.00;102547.00;6272572;28;20049;-72
2022/03/15 05:35:20;;;;;;;8.98;4.45;;;;;;;2.24;100.00;102543.53;6272748;28;20417;-72
2022/03/15 05:38:23;;;;;;;8.88;3.80;;;;;;;2.25;100.00;102546.13;6272987;28;20565;-70
2022/03/15 05:41:24;;;;;;;7.20;4.20;;;;;;;2.28;100.00;102543.59;6272163;28;20497;-72
2022/03/15 05:44:26;;;;;;;9.27;3.85;;;;;;;2.32;100.00;102552.28;6272960;28;20059;-71
2022/03/15 05:47:27;;;;;;;10.07;4.95;;;;;;;2.35;100.00;102551.41;6272828;28;20080;-72
2022/03/15 05:50:28;;;;;;;8.13;4.35;;;;;;;2.31;100.00;102547.91;6271893;28;20053;-72
2022/03/15 05:53:31;;;;;;;11.05;5.35;;;;;;;2.34;100.00;102540.19;6272730;28;20053;-72
2022/03/15 05:56:34;;;;;;;10.38;4.78;;;;;;;2.40;100.00;102560.09;6274533;28;20049;-72
2022/03/15 05:59:35;;;;;;;9.30;3.95;;;;;;;2.44;100.00;102549.78;6284029;28;20057;-72
2022/03/15 06:02:36;;;;;;;8.23;3.90;;;;;;;2.53;100.00;102557.66;6281398;28;20143;-72
2022/03/15 06:05:38;;;;;;;13.38;5.18;;;;;;;2.56;100.00;102559.41;6282635;28;20384;-72
2022/03/15 06:08:40;;;;;;;12.05;5.63;;;;;;;2.58;100.00;102565.47;6283005;28;20059;-72
2022/03/15 06:11:42;;;;;;;9.50;5.82;;;;;;;2.60;100.00;102566.38;6270057;28;20515;-71
2022/03/15 06:14:43;;;;;;;13.23;4.53;;;;;;;2.65;100.00;102558.63;6270606;28;20041;-72
2022/03/15 06:17:46;;;;;;;15.45;5.78;;;;;;;2.67;100.00;102569.88;6270108;28;20060;-71
2022/03/15 06:20:48;;;;;;;11.52;4.93;;;;;;;2.69;100.00;102563.84;6272053;28;20047;-72
2022/03/15 06:23:50;;;;;;;11.20;5.60;;;;;;;2.73;100.00;102570.81;6290895;28;20048;-72
2022/03/15 06:26:52;;;;;;;12.18;5.72;;;;;;;2.82;100.00;102575.22;6296431;28;20044;-72
2022/03/15 06:29:54;;;;;;;11.35;5.95;;;;;;;2.86;100.00;102570.88;6296170;28;20186;-71
2022/03/15 06:32:56;;;;;;;11.07;5.45;;;;;;;2.89;100.00;102569.19;6296313;28;20056;-71
2022/03/15 06:35:57;;;;;;;13.50;6.13;;;;;;;2.92;100.00;102564.03;6296320;28;20047;-72
2022/03/15 06:39:00;;;;;;;13.35;5.65;;;;;;;2.97;100.00;102570.13;6296616;28;20127;-72
2022/03/15 06:42:03;;;;;;;10.65;4.70;;;;;;;3.00;100.00;102562.38;6295806;28;20056;-72
2022/03/15 06:45:06;;;;;;;11.55;4.55;;;;;;;3.07;100.00;102565.88;6293850;28;20040;-72
2022/03/15 06:48:07;;;;;;;7.80;4.72;;;;;;;3.13;100.00;102559.84;6296165;28;20131;-71
2022/03/15 06:51:09;;;;;;;8.40;4.13;;;;;;;3.19;100.00;102559.91;6295356;28;20415;-72
2022/03/15 06:54:12;;;;;;;10.70;5.03;;;;;;;3.24;100.00;102555.59;6296251;28;20048;-72
2022/03/15 06:57:14;;;;;;;12.35;5.63;;;;;;;3.31;100.00;102552.16;6288206;28;20051;-72
2022/03/15 07:00:16;;;;;;;11.38;5.82;;;;;;;3.39;100.00;102560.00;6295641;28;20645;-72
2022/03/15 07:03:18;;;;;;;11.25;5.47;;;;;;;3.44;100.00;102551.38;6292061;28;20049;-73
2022/03/15 07:06:19;;;;;;;12.70;6.13;;;;;;;3.50;100.00;102546.22;6284694;28;20036;-72
2022/03/15 07:09:22;;;;;;;15.70;6.57;;;;;;;3.56;100.00;102543.63;6296103;28;20138;-72
2022/03/15 07:12:24;;;;;;;16.52;6.20;;;;;;;3.62;100.00;102541.94;6295903;28;20060;-72
2022/03/15 07:15:25;;;;;;;11.52;6.38;;;;;;;3.70;100.00;102540.22;6295654;28;20175;-72
2022/03/15 07:18:27;;;;;;;8.95;5.13;;;;;;;3.76;100.00;102542.84;6295879;28;20048;-72
2022/03/15 07:21:29;;;;;;;11.00;5.32;;;;;;;3.83;100.00;102549.81;6295373;28;20052;-72
2022/03/15 07:24:31;;;;;;;10.77;5.32;;;;;;;3.91;100.00;102547.25;6296132;28;20131;-73
2022/03/15 07:27:32;;;;;;;11.68;6.43;;;;;;;3.94;100.00;102539.44;6295908;28;20492;-72
2022/03/15 07:30:34;;;;;;;11.45;5.25;;;;;;;4.03;100.00;102536.88;6294206;28;20049;-72
2022/03/15 07:33:35;;;;;;;14.45;6.20;;;;;;;4.09;100.00;102539.50;6295803;28;20503;-72
2022/03/15 07:36:37;;;;;;;17.55;6.57;;;;;;;4.15;100.00;102536.03;6295638;28;20055;-71
2022/03/15 07:39:39;;;;;;;18.52;6.68;;;;;;;4.21;100.00;102533.44;6295744;28;20045;-72
2022/03/15 07:42:41;;;;;;;11.57;5.35;;;;;;;4.26;100.00;102521.28;6297367;28;20052;-72
2022/03/15 07:45:42;;;;;;;15.32;6.65;;;;;;;4.35;100.00;102515.25;6300463;28;20071;-73
2022/03/15 07:48:43;;;;;;;15.65;6.88;;;;;;;4.42;100.00;102525.66;6300458;28;20515;-73
2022/03/15 07:51:45;;;;;;;13.05;6.13;;;;;;;4.49;100.00;102522.19;6299837;28;20051;-72
2022/03/15 07:54:48;;;;;;;15.00;6.50;;;;;;;4.58;100.00;102524.78;6300374;28;20044;-73
2022/03/15 07:57:49;;;;;;;17.27;6.35;;;;;;;4.66;100.00;102522.19;6300270;28;20049;-73
2022/03/15 08:00:54;;;;;;;13.18;6.18;;;;;;;4.73;100.00;102523.94;6294829;28;20045;-73
2022/03/15 08:03:55;;;;;;;13.98;5.57;;;;;;;4.79;100.00;102518.72;6299734;28;20059;-73
2022/03/15 08:06:56;;;;;;;12.00;5.10;;;;;;;4.86;100.00;102526.50;6303210;28;20042;-73
2022/03/15 08:09:59;;;;;;;15.93;6.22;;;;;;;4.91;100.00;102524.81;6299555;28;20422;-72
2022/03/15 08:13:00;;;;;;;16.25;6.70;;;;;;;5.00;100.00;102522.19;6299368;28;20051;-72
2022/03/15 08:16:04;;;;;;;11.82;6.15;;;;;;;5.08;100.00;102521.25;6299735;28;20041;-72
2022/03/15 08:19:05;;;;;;;13.48;6.88;;;;;;;5.14;100.00;102517.81;6299568;28;20048;-73
2022/03/15 08:22:07;;;;;;;13.68;6.55;;;;;;;5.22;100.00;102517.75;6299036;28;20056;-72
2022/03/15 08:25:10;;;;;;;17.50;6.80;;;;;;;5.29;100.00;102520.34;6298173;28;20082;-71
2022/03/15 08:28:12;;;;;;;15.70;6.45;;;;;;;5.33;100.00;102522.09;6311207;28;20149;-73
2022/03/15 08:31:13;;;;;;;15.30;6.38;;;;;;;5.42;100.00;102512.50;6304923;28;20055;-74
2022/03/15 08:34:15;;;;;;;15.70;6.57;;;;;;;5.48;100.00;102515.09;6299453;28;20080;-73
2022/03/15 08:37:16;;;;;;;17.60;6.38;;;;;;;5.52;100.00;102512.44;6299134;28;20045;-74
2022/03/15 08:40:21;;;;;;;22.15;6.70;;;;;;;5.62;100.00;102510.66;6298392;28;20416;-74
2022/03/15 08:43:24;;;;;;;16.20;6.90;;;;;;;5.71;100.00;102512.38;6299126;28;20055;-72
2022/03/15 08:46:25;;;;;;;13.73;5.95;;;;;;;5.79;100.00;102502.78;6289048;28;20053;-73
2022/03/15 08:49:26;;;;;;;16.10;7.50;;;;;;;5.89;100.00;102504.44;6274139;28;20055;-73
2022/03/15 08:52:28;;;;;;;17.75;7.18;;;;;;;5.91;100.00;102494.03;6273093;28;20431;-73
2022/03/15 08:55:31;;;;;;;15.30;6.15;;;;;;;5.97;100.00;102504.44;6273091;28;20053;-73
2022/03/15 08:58:32;;;;;;;17.83;6.68;;;;;;;6.03;100.00;102488.75;6279375;28;20060;-73
2022/03/15 09:01:34;;;;;;;13.30;6.43;;;;;;;6.04;100.00;102491.38;6297924;28;20045;-73
2022/03/15 09:04:35;;;;;;;15.10;6.25;;;;;;;6.10;100.00;102491.31;6298896;28;20424;-73
2022/03/15 09:07:37;;;;;;;15.38;6.95;;;;;;;6.16;100.00;102492.16;6298415;28;20052;-73
2022/03/15 09:10:42;;;;;;;14.75;6.47;;;;;;;6.24;100.00;102493.81;6295745;28;20491;-72
2022/03/15 09:13:43;;;;;;;15.48;6.60;;;;;;;6.31;100.00;102497.25;6298310;28;20060;-72
2022/03/15 09:16:45;;;;;;;17.33;6.50;;;;;;;6.36;100.00;102487.66;6297947;28;20190;-73
2022/03/15 09:19:46;;;;;;;20.83;7.72;;;;;;;6.43;100.00;102486.72;6298073;28;20051;-73
2022/03/15 09:22:47;;;;;;;16.38;7.18;;;;;;;6.50;100.00;102480.56;6295825;28;20044;-73
2022/03/15 09:25:50;;;;;;;16.13;6.18;;;;;;;6.59;100.00;102479.63;6293716;28;20041;-73
2022/03/15 09:28:51;;;;;;;21.02;7.43;;;;;;;6.66;100.00;102473.44;6297822;28;20416;-73
2022/03/15 09:31:53;;;;;;;14.35;6.75;;;;;;;6.72;100.00;102465.59;6296763;28;20437;-73
2022/03/15 09:34:55;;;;;;;13.40;7.45;;;;;;;6.79;100.00;102468.97;6297587;28;20503;-73
2022/03/15 09:37:56;;;;;;;17.50;6.82;;;;;;;6.92;100.00;102464.50;6294633;28;20444;-73
2022/03/15 09:41:03;;;;;;;17.63;7.40;;;;;;;6.98;100.00;102460.06;6296852;28;20052;-73
2022/03/15 09:44:07;;;;;;;14.80;6.68;;;;;;;7.05;100.00;102463.50;6297971;28;20057;-73
2022/03/15 09:47:09;;;;;;;15.15;6.25;;;;;;;7.12;100.00;102462.53;6297483;28;20048;-72
2022/03/15 09:50:11;;;;;;;16.52;7.35;;;;;;;7.15;100.00;102452.03;6297122;28;20410;-72
2022/03/15 09:53:12;;;;;;;17.98;6.78;;;;;;;7.23;100.00;102452.81;6297092;28;20052;-72
2022/03/15 09:56:17;;;;;;;15.52;7.18;;;;;;;7.31;100.00;102439.63;6297113;28;20051;-71
2022/03/15 09:59:20;;;;;;;14.25;5.95;;;;;;;7.36;100.00;102437.84;6297319;28;20072;-72
2022/03/15 10:02:22;;;;;;;13.90;6.95;;;;;;;7.40;100.00;102436.91;6296508;28;20075;-71
2022/03/15 10:05:24;;;;;;;13.75;5.88;;;;;;;7.48;100.00;102440.28;6296805;28;20499;-72
2022/03/15 10:08:25;;;;;;;12.27;6.60;;;;;;;7.59;100.00;102430.56;6293947;28;20071;-72
2022/03/15 10:11:28;;;;;;;15.98;6.30;;;;;;;7.79;100.00;102432.00;6289613;28;20044;-72
2022/03/15 10:14:40;;;;;;;15.48;7.07;;;;;;;7.78;100.00;102425.91;6293860;28;20048;-72
2022/03/15 10:17:48;;;;;;;16.38;6.70;;;;;;;7.78;100.00;102425.91;6299635;28;20047;-72
2022/03/15 10:20:49;;;;;;;17.63;6.05;;;;;;;7.84;100.00;102417.97;6321141;28;20048;-71
2022/03/15 10:23:52;;;;;;;14.40;6.35;;;;;;;7.94;100.00;102421.31;6322059;28;20059;-72
2022/03/15 10:26:56;;;;;;;25.13;8.43;;;;;;;8.07;100.00;102422.84;6310395;28;20117;-72
2022/03/15 10:29:58;;;;;;;19.23;7.97;;;;;;;8.20;100.00;102414.81;6318494;28;20044;-71
2022/03/15 10:33:00;;;;;;;13.73;6.90;;;;;;;8.27;100.00;102408.59;6312851;28;20044;-71
2022/03/15 10:36:01;;;;;;;16.77;7.90;;;;;;;8.30;100.00;102413.75;6296342;28;20071;-72
2022/03/15 10:39:03;;;;;;;22.00;7.78;;;;;;;8.34;100.00;102410.19;6296693;28;20411;-71
2022/03/15 10:42:08;;;;;;;18.95;7.35;;;;;;;8.41;100.00;102401.38;6295457;28;20533;-71
2022/03/15 10:45:18;;;;;;;14.13;6.60;;;;;;;8.45;100.00;102395.19;6305021;28;20051;-72
2022/03/15 10:48:22;;;;;;;18.65;7.65;;;;;;;8.52;100.00;102388.06;6320868;28;20048;-72
2022/03/15 10:51:23;;;;;;;16.73;7.72;;;;;;;8.58;100.00;102386.22;6301027;28;20507;-72
2022/03/15 10:54:26;;;;;;;28.40;8.35;;;;;;;8.62;100.00;102376.50;6296055;28;20064;-73
2022/03/15 10:57:28;;;;;;;19.48;7.78;;;;;;;8.70;100.00;102377.25;6292397;28;20049;-72
2022/03/15 11:00:33;;;;;;;14.48;7.70;;;;;;;8.77;100.00;102364.91;6295146;28;20048;-72
2022/03/15 11:03:35;;;;;;;18.38;7.38;;;;;;;8.80;100.00;102360.44;6290148;28;20044;-73
2022/03/15 11:06:38;;;;;;;16.05;6.93;;;;;;;8.93;100.00;102361.06;6295435;28;20526;-72
2022/03/15 11:09:40;;;;;;;18.80;7.35;;;;;;;8.99;100.00;102360.91;6292567;28;20131;-72
2022/03/15 11:12:56;;;;;;;18.25;7.57;;;;;;;9.07;100.00;102355.53;6291220;28;20048;-72
2022/03/15 11:15:59;;;;;;;18.58;8.02;;;;;;;9.13;100.00;102347.53;6292170;28;20037;-72
2022/03/15 11:19:03;;;;;;;16.33;7.03;;;;;;;9.28;100.00;102348.97;6299016;28;20048;-71
2022/03/15 11:22:05;;;;;;;16.75;6.63;;;;;;;9.36;100.00;102347.91;6297080;28;20123;-72
2022/03/15 11:25:08;;;;;;;16.48;7.55;;;;;;;9.40;100.00;102344.31;6300491;28;20471;-72
2022/03/15 11:28:13;;;;;;;21.20;7.47;;;;;;;9.49;100.00;102331.84;6291814;28;20045;-71
2022/03/15 11:31:15;;;;;;;15.18;7.60;;;;;;;9.52;100.00;102327.41;6296183;28;20070;-72
2022/03/15 11:34:19;;;;;;;15.98;6.43;;;;;;;9.58;100.00;102323.75;6299295;28;20064;-72
2022/03/15 11:37:22;;;;;;;16.20;6.97;;;;;;;9.63;100.00;102322.78;6298387;28;20047;-72
2022/03/15 11:40:24;;;;;;;11.73;6.88;;;;;;;9.71;100.00;102319.06;6297575;28;20052;-72
2022/03/15 11:43:40;;;;;;;16.88;7.43;;;;;;;9.79;100.00;102315.38;6300442;28;20075;-72
2022/03/15 11:46:46;;;;;;;23.00;8.90;;;;;;;9.91;100.00;102314.22;6299028;28;20052;-72
2022/03/15 11:50:02;;;;;;;16.25;7.82;;;;;;;9.91;100.00;102303.72;6298211;28;20052;-73
2022/03/15 11:53:09;;;;;;;21.58;7.68;;;;;;;9.95;100.00;102300.09;6297173;28;20044;-72
2022/03/15 11:56:18;;;;;;;16.10;7.15;;;;;;;10.03;100.00;102289.38;6295429;28;20372;-72
2022/03/15 11:59:21;;;;;;;18.48;7.95;;;;;;;10.11;100.00;102282.16;6295923;28;20056;-71
2022/03/15 12:02:28;;;;;;;17.25;7.75;;;;;;;10.28;100.00;102279.13;6299355;28;20416;-73
2022/03/15 12:05:30;;;;;;;15.32;7.43;;;;;;;10.30;100.00;102280.78;6299907;28;20107;-73
2022/03/15 12:08:36;;;;;;;20.40;7.25;;;;;;;10.40;100.00;102265.63;6299367;28;20048;-72
2022/03/15 12:11:39;;;;;;;14.95;6.88;;;;;;;10.46;100.00;102261.97;6297769;28;20048;-71
2022/03/15 12:14:52;;;;;;;17.15;7.60;;;;;;;10.58;100.00;102253.72;6299504;28;20483;-72
2022/03/15 12:18:23;;;;;;;17.73;7.80;;;;;;;10.69;100.00;102246.41;6299510;28;20049;-73
2022/03/15 12:21:27;;;;;;;18.92;7.10;;;;;;;10.85;100.00;102237.13;6299033;28;20052;-73
2022/03/15 12:24:30;;;;;;;22.70;8.25;;;;;;;11.07;100.00;102239.94;6306446;28;20154;-73
2022/03/15 12:27:40;;;;;;;15.75;7.38;;;;;;;11.02;100.00;102230.50;6315941;28;20048;-71
2022/03/15 12:30:50;;;;;;;18.67;8.07;;;;;;;11.07;100.00;102229.44;6323904;28;20119;-72
2022/03/15 12:34:00;;;;;;;15.57;7.07;;;;;;;11.10;100.00;102224.06;6309736;28;20088;-72
2022/03/15 12:37:02;;;;;;;15.82;7.50;;;;;;;11.14;100.00;102224.84;6315994;28;20056;-73
2022/03/15 12:40:06;;;;;;;15.57;7.75;;;;;;;11.11;100.00;102204.75;6324166;28;20048;-72
2022/03/15 12:43:07;;;;;;;16.73;7.50;;;;;;;11.12;100.00;102211.72;6323548;28;20056;-73
2022/03/15 12:46:11;;;;;;;13.68;6.72;;;;;;;11.08;100.00;102207.50;6312936;28;20040;-73
2022/03/15 12:49:17;;;;;;;18.95;7.05;;;;;;;11.15;100.00;102200.25;6307665;28;20060;-73
2022/03/15 12:52:19;;;;;;;13.35;5.10;;;;;;;11.10;100.00;102195.13;6314584;28;20044;-72
2022/03/15 12:55:22;;;;;;;13.52;6.50;;;;;;;11.04;100.00;102194.50;6316734;28;20064;-72
2022/03/15 12:58:23;;;;;;;14.07;6.03;;;;;;;11.03;100.00;102185.72;6299324;28;20040;-72
2022/03/15 13:01:28;;;;;;;17.45;5.97;;;;;;;11.08;100.00;102182.94;6297893;28;20049;-72
2022/03/15 13:04:32;;;;;;;14.75;5.93;;;;;;;11.06;100.00;102177.72;6308249;28;20052;-72
2022/03/15 13:07:34;;;;;;;15.10;5.97;;;;;;;11.00;100.00;102171.81;6323443;28;20404;-73
2022/03/15 13:10:38;;;;;;;11.63;5.30;;;;;;;11.00;100.00;102166.56;6308689;28;20048;-72
2022/03/15 13:13:46;;;;;;;12.60;5.22;;;;;;;10.98;100.00;102161.31;6323360;28;20094;-72
2022/03/15 13:16:50;;;;;;;15.05;6.32;;;;;;;10.98;100.00;102160.47;6323490;28;20052;-73
2022/03/15 13:19:51;;;;;;;19.58;8.02;;;;;;;10.99;100.00;102155.19;6322995;28;20132;-73
2022/03/15 13:23:00;;;;;;;14.20;6.05;;;;;;;11.06;100.00;102156.69;6297035;28;20059;-72
2022/03/15 13:26:07;;;;;;;17.02;6.85;;;;;;;11.03;100.00;102150.66;6298220;28;20560;-72
2022/03/15 13:29:13;;;;;;;13.25;5.07;;;;;;;11.02;100.00;102146.31;6298003;28;20041;-72
2022/03/15 13:32:22;;;;;;;12.57;4.95;;;;;;;11.05;100.00;102144.44;6297462;28;20061;-73
2022/03/15 13:35:23;;;;;;;13.25;5.57;;;;;;;11.03;100.00;102135.72;6297982;28;20053;-73
2022/03/15 13:38:26;;;;;;;12.80;4.70;;;;;;;11.04;100.00;102133.97;6297895;28;20041;-73
2022/03/15 13:41:31;;;;;;;10.50;5.65;;;;;;;11.00;100.00;102135.84;6296104;28;20424;-73
2022/03/15 13:44:37;;;;;;;11.32;5.10;;;;;;;11.00;100.00;102129.72;6297742;28;20078;-73
2022/03/15 13:47:49;;;;;;;10.27;4.97;;;;;;;10.96;100.00;102125.47;6297590;28;20051;-72
2022/03/15 13:50:58;;;;;;;9.55;4.72;;;;;;;10.96;100.00;102120.22;6296858;28;20048;-73
2022/03/15 13:54:07;;;;;;;13.77;5.47;;;;;;;10.99;100.00;102120.09;6297384;28;20513;-72
2022/03/15 13:57:10;;;;;;;7.40;4.07;;;;;;;11.06;100.00;102121.63;6279679;28;20119;-73
2022/03/15 14:00:16;;;;;;;7.03;3.85;;;;;;;11.03;100.00;102122.56;6296556;28;20055;-73
2022/03/15 14:03:19;;;;;;;16.60;5.30;;;;;;;10.95;100.00;102108.84;6277829;28;20056;-72
2022/03/15 14:06:22;;;;;;;9.95;4.47;;;;;;;10.95;100.00;102115.88;6272175;28;20060;-72